createdAt,value
2023-09-18T00:02:49.206Z,17.14
2023-09-18T00:06:26.509Z,17.11
2023-09-18T00:10:03.730Z,17.09
2023-09-18T00:13:41.629Z,17.05
2023-09-18T00:17:20.434Z,17.02
2023-09-18T00:20:56.903Z,17.02
2023-09-18T00:24:35.154Z,17.01
2023-09-18T00:28:12.347Z,16.99
2023-09-18T00:31:50.155Z,16.94
2023-09-18T00:35:28.009Z,16.89
2023-09-18T00:39:05.962Z,16.84
2023-09-18T00:42:43.432Z,16.82
2023-09-18T00:46:21.404Z,16.84
2023-09-18T00:50:02.599Z,16.85
2023-09-18T00:53:38.489Z,16.84
2023-09-18T00:57:14.808Z,16.82
2023-09-18T01:00:52.658Z,16.80
2023-09-18T01:04:31.162Z,16.78
2023-09-18T01:08:07.868Z,16.75
2023-09-18T01:11:52.148Z,16.66
2023-09-18T01:15:31.129Z,16.59
2023-09-18T01:19:00.859Z,16.49
2023-09-18T01:22:39.113Z,16.43
2023-09-18T01:26:16.672Z,16.40
2023-09-18T01:29:54.803Z,16.39
2023-09-18T01:33:33.394Z,16.40
2023-09-18T01:37:13.648Z,16.43
2023-09-18T01:40:48.808Z,16.45
2023-09-18T01:44:25.957Z,16.45
2023-09-18T01:48:07.118Z,16.46
2023-09-18T01:51:40.855Z,16.46
2023-09-18T01:55:18.731Z,16.48
2023-09-18T01:58:56.331Z,16.49
2023-09-18T02:02:34.213Z,16.48
2023-09-18T02:06:12.031Z,16.46
2023-09-18T02:09:49.771Z,16.41
2023-09-18T02:13:27.694Z,16.37
2023-09-18T02:17:06.563Z,16.32
2023-09-18T02:20:43.547Z,16.27
2023-09-18T02:24:20.612Z,16.24
2023-09-18T02:27:58.452Z,16.23
2023-09-18T02:31:36.240Z,16.23
2023-09-18T02:35:14.379Z,16.22
2023-09-18T02:38:52.084Z,16.18
2023-09-18T02:42:29.750Z,16.14
2023-09-18T02:46:07.632Z,16.09
2023-09-18T02:49:44.985Z,16.06
2023-09-18T02:53:24.619Z,16.04
2023-09-18T02:57:00.490Z,16.03
2023-09-18T03:00:51.670Z,16.04
2023-09-18T03:04:17.050Z,16.01
2023-09-18T03:07:53.838Z,15.98
2023-09-18T03:11:31.618Z,15.98
2023-09-18T03:15:10.568Z,15.97
2023-09-18T03:18:47.071Z,15.96
2023-09-18T03:22:24.720Z,15.94
2023-09-18T03:26:02.493Z,15.93
2023-09-18T03:29:40.356Z,15.95
2023-09-18T03:33:18.081Z,15.96
2023-09-18T03:36:55.766Z,15.95
2023-09-18T03:40:33.485Z,15.93
2023-09-18T03:44:12.335Z,15.92
2023-09-18T03:47:51.278Z,15.92
2023-09-18T03:51:26.874Z,15.93
2023-09-18T03:55:04.993Z,15.90
2023-09-18T03:58:42.269Z,15.87
2023-09-18T04:02:20.238Z,15.82
2023-09-18T04:05:58.013Z,15.79
2023-09-18T04:09:36.020Z,15.80
2023-09-18T04:13:13.494Z,15.80
2023-09-18T04:16:53.668Z,15.78
2023-09-18T04:20:29.424Z,15.77
2023-09-18T04:24:07.274Z,15.78
2023-09-18T04:27:44.501Z,15.76
2023-09-18T04:31:22.464Z,15.75
2023-09-18T04:35:00.027Z,15.75
2023-09-18T04:38:37.940Z,15.75
2023-09-18T04:42:15.416Z,15.72
2023-09-18T04:45:53.378Z,15.71
2023-09-18T04:49:31.016Z,15.73
2023-09-18T04:53:10.076Z,15.74
2023-09-18T04:56:46.722Z,15.76
2023-09-18T05:00:24.631Z,15.77
2023-09-18T05:04:02.083Z,15.78
2023-09-18T05:07:40.188Z,15.81
2023-09-18T05:11:18.251Z,15.87
2023-09-18T05:14:57.715Z,16.00
2023-09-18T05:18:33.167Z,16.12
2023-09-18T05:22:11.516Z,16.25
2023-09-18T05:25:48.673Z,16.35
2023-09-18T05:29:26.233Z,16.45
2023-09-18T05:33:09.510Z,16.55
2023-09-18T05:36:42.511Z,16.63
2023-09-18T05:40:19.642Z,16.73
2023-09-18T05:43:58.090Z,16.83
2023-09-18T05:47:39.503Z,16.91
2023-09-18T05:51:12.953Z,16.98
2023-09-18T05:54:50.832Z,17.08
2023-09-18T05:58:29.024Z,17.18
2023-09-18T06:02:06.243Z,17.26
2023-09-18T06:05:43.917Z,17.34
2023-09-18T06:09:22.354Z,17.42
2023-09-18T06:13:05.199Z,17.52
2023-09-18T06:16:37.946Z,17.62
2023-09-18T06:20:18.283Z,17.72
2023-09-18T06:23:52.968Z,17.80
2023-09-18T06:27:30.576Z,17.91
2023-09-18T06:31:08.805Z,18.01
2023-09-18T06:34:48.703Z,18.13
2023-09-18T06:38:24.550Z,18.30
2023-09-18T06:42:01.992Z,18.49
2023-09-18T06:45:40.731Z,18.69
2023-09-18T06:49:27.832Z,18.90
2023-09-18T06:53:10.381Z,19.13
2023-09-18T06:56:37.935Z,19.38
2023-09-18T07:00:36.796Z,19.69
2023-09-18T07:04:21.460Z,20.01
2023-09-18T07:08:28.036Z,20.27
2023-09-18T07:11:36.728Z,20.53
2023-09-18T07:15:14.420Z,20.81
2023-09-18T07:18:52.591Z,21.13
2023-09-18T07:22:31.123Z,21.45
2023-09-18T07:26:08.003Z,21.71
2023-09-18T07:29:45.812Z,21.96
2023-09-18T07:33:23.823Z,22.21
2023-09-18T07:37:01.076Z,22.47
2023-09-18T07:40:38.728Z,22.73
2023-09-18T07:44:24.388Z,22.95
2023-09-18T07:47:54.382Z,23.17
2023-09-18T07:51:32.280Z,23.36
2023-09-18T07:55:11.041Z,23.55
2023-09-18T07:58:48.105Z,23.76
2023-09-18T08:02:26.664Z,23.99
2023-09-18T08:06:05.645Z,24.18
2023-09-18T08:09:41.003Z,24.35
2023-09-18T08:13:19.158Z,24.50
2023-09-18T08:17:01.225Z,24.66
2023-09-18T08:20:34.331Z,24.83
2023-09-18T08:24:11.925Z,24.98
2023-09-18T08:27:49.780Z,25.15
2023-09-18T08:31:28.760Z,25.38
2023-09-18T08:35:06.708Z,25.59
2023-09-18T08:38:45.037Z,25.79
2023-09-18T08:42:22.079Z,25.96
2023-09-18T08:46:02.482Z,26.18
2023-09-18T08:49:36.966Z,26.34
2023-09-18T08:53:14.168Z,26.40
2023-09-18T08:56:53.365Z,26.45
2023-09-18T09:00:29.899Z,26.52
2023-09-18T09:04:07.333Z,26.62
2023-09-18T09:07:45.095Z,26.68
2023-09-18T09:11:23.859Z,26.69
2023-09-18T09:15:07.136Z,26.59
2023-09-18T09:18:49.259Z,26.46
2023-09-18T09:22:23.280Z,26.38
2023-09-18T09:25:54.848Z,26.33
2023-09-18T09:29:32.715Z,26.48
2023-09-18T09:33:13.575Z,26.62
2023-09-18T09:36:55.309Z,26.69
2023-09-18T09:40:26.814Z,26.74
2023-09-18T09:44:02.717Z,26.77
2023-09-18T09:47:40.715Z,26.82
2023-09-18T09:51:22.363Z,26.91
2023-09-18T09:54:56.886Z,27.00
2023-09-18T09:58:34.047Z,27.03
2023-09-18T10:02:15.770Z,26.98
2023-09-18T10:05:52.932Z,26.97
2023-09-18T10:09:30.882Z,27.01
2023-09-18T10:13:11.074Z,27.15
2023-09-18T10:16:49.961Z,27.33
2023-09-18T10:20:22.083Z,27.41
2023-09-18T10:24:09.021Z,27.54
2023-09-18T10:27:40.374Z,27.63
2023-09-18T10:31:16.152Z,27.74
2023-09-18T10:34:52.098Z,27.81
2023-09-18T10:38:30.362Z,27.90
2023-09-18T10:42:09.615Z,27.99
2023-09-18T10:45:46.013Z,28.17
2023-09-18T10:49:23.376Z,28.35
2023-09-18T10:53:00.624Z,28.37
2023-09-18T10:56:39.340Z,28.35
2023-09-18T11:00:18.034Z,28.37
2023-09-18T11:04:00.706Z,28.37
2023-09-18T11:07:31.543Z,28.42
2023-09-18T11:11:12.933Z,28.54
2023-09-18T11:14:56.306Z,28.59
2023-09-18T11:18:25.161Z,28.55
2023-09-18T11:22:11.687Z,28.52
2023-09-18T11:25:42.914Z,28.46
2023-09-18T11:29:23.635Z,28.41
2023-09-18T11:32:57.100Z,28.36
2023-09-18T11:36:34.350Z,28.37
2023-09-18T11:40:42.195Z,28.36
2023-09-18T11:44:15.040Z,28.30
2023-09-18T11:47:34.285Z,28.22
2023-09-18T11:51:12.818Z,28.16
2023-09-18T11:54:49.993Z,28.16
2023-09-18T11:58:49.648Z,28.24
2023-09-18T12:02:07.524Z,28.28
2023-09-18T12:05:42.770Z,28.34
2023-09-18T12:09:21.216Z,28.43
2023-09-18T12:12:59.234Z,28.46
2023-09-18T12:16:40.516Z,28.44
2023-09-18T12:20:20.783Z,28.38
2023-09-18T12:23:52.573Z,28.36
2023-09-18T12:27:31.605Z,28.34
2023-09-18T12:31:08.080Z,28.30
2023-09-18T12:34:45.563Z,28.33
2023-09-18T12:38:26.676Z,28.29
2023-09-18T12:42:03.729Z,28.18
2023-09-18T12:45:38.516Z,28.13
2023-09-18T12:49:17.807Z,28.10
2023-09-18T12:52:53.781Z,28.07
2023-09-18T12:56:31.424Z,27.99
2023-09-18T13:00:13.684Z,27.96
2023-09-18T13:03:48.179Z,27.90
2023-09-18T13:07:26.964Z,27.85
2023-09-18T13:11:04.441Z,27.81
2023-09-18T13:15:10.369Z,27.79
2023-09-18T13:18:25.463Z,27.75
2023-09-18T13:22:01.962Z,27.75
2023-09-18T13:25:43.855Z,27.76
2023-09-18T13:29:17.279Z,27.76
2023-09-18T13:33:05.434Z,27.78
2023-09-18T13:36:32.985Z,27.75
2023-09-18T13:40:11.656Z,27.74
2023-09-18T13:43:50.235Z,27.73
2023-09-18T13:47:26.430Z,27.70
2023-09-18T13:51:05.044Z,27.65
2023-09-18T13:54:42.647Z,27.61
2023-09-18T13:58:19.464Z,27.58
2023-09-18T14:01:57.427Z,27.59
2023-09-18T14:05:35.636Z,27.64
2023-09-18T14:09:13.035Z,27.71
2023-09-18T14:12:51.770Z,27.76
2023-09-18T14:16:28.361Z,27.80
2023-09-18T14:20:10.346Z,27.77
2023-09-18T14:23:43.994Z,27.68
2023-09-18T14:27:21.657Z,27.60
2023-09-18T14:30:59.913Z,27.58
2023-09-18T14:34:37.175Z,27.56
2023-09-18T14:38:16.410Z,27.56
2023-09-18T14:41:52.945Z,27.57
2023-09-18T14:45:31.151Z,27.60
2023-09-18T14:49:08.652Z,27.62
2023-09-18T14:52:47.436Z,27.65
2023-09-18T14:56:23.798Z,27.67
2023-09-18T15:00:07.918Z,27.66
2023-09-18T15:03:41.618Z,27.62
2023-09-18T15:07:17.073Z,27.62
2023-09-18T15:10:54.939Z,27.59
2023-09-18T15:14:33.496Z,27.50
2023-09-18T15:18:10.597Z,27.41
2023-09-18T15:21:48.771Z,27.31
2023-09-18T15:25:25.750Z,27.23
2023-09-18T15:29:04.796Z,27.17
2023-09-18T15:32:51.906Z,27.09
2023-09-18T15:36:19.194Z,27.02
2023-09-18T15:39:57.033Z,26.95
2023-09-18T15:43:35.533Z,26.87
2023-09-18T15:47:12.432Z,26.78
2023-09-18T15:50:50.356Z,26.69
2023-09-18T15:54:28.010Z,26.62
2023-09-18T15:58:05.906Z,26.53
2023-09-18T16:01:44.420Z,26.45
2023-09-18T16:05:27.095Z,26.38
2023-09-18T16:09:01.419Z,26.29
2023-09-18T16:12:37.491Z,26.21
2023-09-18T16:16:15.386Z,26.13
2023-09-18T16:19:53.020Z,26.06
2023-09-18T16:23:31.021Z,25.97
2023-09-18T16:27:08.871Z,25.87
2023-09-18T16:30:47.249Z,25.75
2023-09-18T16:34:43.432Z,25.63
2023-09-18T16:38:43.460Z,25.54
2023-09-18T16:41:52.156Z,25.41
2023-09-18T16:45:54.984Z,25.31
2023-09-18T16:50:12.889Z,25.19
2023-09-18T16:53:28.238Z,25.10
2023-09-18T16:57:05.668Z,25.02
2023-09-18T17:00:43.206Z,24.94
2023-09-18T17:04:21.215Z,24.82
2023-09-18T17:07:58.920Z,24.70
2023-09-18T17:11:37.076Z,24.55
2023-09-18T17:15:15.851Z,24.43
2023-09-18T17:18:58.191Z,24.32
2023-09-18T17:22:36.432Z,24.23
2023-09-18T17:26:12.612Z,24.14
2023-09-18T17:29:52.598Z,24.04
2023-09-18T17:33:23.207Z,23.93
2023-09-18T17:37:01.155Z,23.83
2023-09-18T17:40:43.910Z,23.75
2023-09-18T17:44:17.501Z,23.72
2023-09-18T17:47:54.268Z,23.68
2023-09-18T17:51:35.380Z,23.65
2023-09-18T17:55:10.098Z,23.57
2023-09-18T17:58:50.807Z,23.49
2023-09-18T18:02:25.450Z,23.41
2023-09-18T18:06:03.691Z,23.36
2023-09-18T18:09:41.463Z,23.30
2023-09-18T18:13:18.529Z,23.27
2023-09-18T18:16:57.945Z,23.23
2023-09-18T18:20:34.084Z,23.17
2023-09-18T18:24:12.214Z,23.09
2023-09-18T18:27:49.755Z,23.02
2023-09-18T18:31:28.425Z,22.95
2023-09-18T18:35:05.869Z,22.88
2023-09-18T18:38:43.207Z,22.78
2023-09-18T18:42:20.973Z,22.73
2023-09-18T18:45:58.607Z,22.68
2023-09-18T18:49:36.177Z,22.60
2023-09-18T18:53:13.980Z,22.54
2023-09-18T18:56:51.664Z,22.49
2023-09-18T19:00:30.567Z,22.44
2023-09-18T19:04:07.564Z,22.39
2023-09-18T19:07:45.311Z,22.35
2023-09-18T19:11:23.325Z,22.30
2023-09-18T19:15:02.571Z,22.25
2023-09-18T19:18:41.666Z,22.22
2023-09-18T19:22:17.680Z,22.20
2023-09-18T19:25:57.132Z,22.19
2023-09-18T19:29:33.804Z,22.13
2023-09-18T19:33:11.807Z,22.07
2023-09-18T19:37:02.687Z,22.04
2023-09-18T19:40:24.855Z,22.01
2023-09-18T19:44:03.570Z,22.01
2023-09-18T19:47:41.213Z,21.97
2023-09-18T19:51:18.685Z,21.94
2023-09-18T19:54:55.981Z,21.90
2023-09-18T19:58:34.733Z,21.89
2023-09-18T20:02:17.880Z,21.87
2023-09-18T20:05:49.169Z,21.85
2023-09-18T20:09:28.665Z,21.84
2023-09-18T20:13:04.898Z,21.83
2023-09-18T20:16:49.887Z,21.83
2023-09-18T20:20:20.736Z,21.81
2023-09-18T20:23:58.050Z,21.80
2023-09-18T20:27:40.643Z,21.79
2023-09-18T20:31:13.670Z,21.80
2023-09-18T20:34:51.238Z,21.81
2023-09-18T20:38:29.615Z,21.81
2023-09-18T20:42:07.064Z,21.81
2023-09-18T20:45:44.711Z,21.82
2023-09-18T20:49:22.376Z,21.82
2023-09-18T20:53:00.376Z,21.80
2023-09-18T20:56:41.265Z,21.79
2023-09-18T21:00:18.370Z,21.77
2023-09-18T21:03:54.031Z,21.72
2023-09-18T21:07:31.036Z,21.69
2023-09-18T21:11:09.205Z,21.68
2023-09-18T21:14:46.710Z,21.65
2023-09-18T21:18:24.486Z,21.61
2023-09-18T21:22:02.218Z,21.58
2023-09-18T21:25:40.918Z,21.57
2023-09-18T21:29:18.088Z,21.53
2023-09-18T21:32:56.215Z,21.47
2023-09-18T21:36:35.347Z,21.45
2023-09-18T21:40:13.512Z,21.46
2023-09-18T21:43:49.166Z,21.47
2023-09-18T21:47:26.291Z,21.47
2023-09-18T21:51:05.301Z,21.45
2023-09-18T21:54:42.014Z,21.44
2023-09-18T21:58:19.772Z,21.45
2023-09-18T22:01:57.573Z,21.43
2023-09-18T22:05:40.406Z,21.46
2023-09-18T22:09:13.020Z,21.45
2023-09-18T22:12:51.215Z,21.48
2023-09-18T22:16:28.825Z,21.50
2023-09-18T22:20:06.976Z,21.51
2023-09-18T22:23:43.940Z,21.51
2023-09-18T22:27:21.811Z,21.51
2023-09-18T22:30:59.667Z,21.50
2023-09-18T22:34:39.166Z,21.49
2023-09-18T22:38:20.046Z,21.49
2023-09-18T22:41:52.737Z,21.50
2023-09-18T22:46:16.005Z,21.51
2023-09-18T22:50:13.641Z,21.49
2023-09-18T22:53:27.424Z,21.42
2023-09-18T22:57:05.225Z,21.39
2023-09-18T23:00:43.076Z,21.35
2023-09-18T23:04:20.773Z,21.31
2023-09-18T23:08:02.087Z,21.24
2023-09-18T23:11:38.909Z,21.18
2023-09-18T23:15:17.297Z,21.10
2023-09-18T23:18:52.272Z,21.03
2023-09-18T23:22:30.510Z,20.97
2023-09-18T23:26:09.831Z,20.88
2023-09-18T23:29:44.973Z,20.79
2023-09-18T23:33:23.908Z,20.70
2023-09-18T23:37:00.382Z,20.58
2023-09-18T23:40:41.281Z,20.49
2023-09-18T23:44:18.875Z,20.41
2023-09-18T23:47:53.841Z,20.35
2023-09-18T23:51:32.734Z,20.32
2023-09-18T23:55:11.289Z,20.30
2023-09-18T23:58:48.588Z,20.26
